Panama City, FL (32405)

11:58 AM CST on December 06, 2016 (GMT -0600)
Forest Park | | Change Station
Active Advisory: Coastal Hazard Statement

Elev 42 ft 30.20 °N, 85.67 °W | Updated 5 seconds ago

Scattered Clouds
Scattered Clouds
70.9 °F
Feels Like 77 °F
N
4.0
Wind Variable Wind from WSW
Gusts 18.0 mph

Today
High -- | Low -- °F
--% Chance of Precip.
Yesterday
High -- | Low -- °F
Precip. -- in
Pressure 29.86 in
Visibility 10.0 miles
Clouds Scattered Clouds 2000 ft
Heat Index 77 °F
Dew Point 52 °F
Humidity 51%
Rainfall 0.00 in
Snow Depth Not available.
6:25 AM 4:42 PM
Waxing Crescent, 43% visible
METAR KPAM 061756Z 29023KT 10SM SCT020 21/15 A2985 RMK AO2A PK WND 29029/55 SLP111 T02110154 10225 20211 58003 $
Pressure 29.86 in
Visibility 10.0 miles
Clouds Scattered Clouds 2000 ft
Heat Index 77 °F
Dew Point 52 °F
Humidity 51%
Rainfall 0.00 in
Snow Depth Not available.
6:25 AM 4:42 PM
Waxing Crescent, 43% visible
METAR KPAM 061756Z 29023KT 10SM SCT020 21/15 A2985 RMK AO2A PK WND 29029/55 SLP111 T02110154 10225 20211 58003 $

10-Day Weather Forecast

Almanac

Astronomy

Dec. 06, 2016 Rise Set
Actual Time
Civil Twilight
Nautical Twilight
Astronomical Twilight
Moon
Length of Visible Light
Length of Day
Tomorrow will be .
, % of the Moon is Illuminated

Today's Extremes

State Highs State Lows

Community

WunderPhotos

Upload Photos

1,955,986 photos uploaded!

WunderBlog® & News

Nearby

Air Quality

  Air Quality AQ Index Pollutant
Not available.

Snow Depth

Station Depth Elevation

Earthquake Activity

City Distance Mag. Time & Date
Minimum magnitude displayed is 2.5.

Coastal Water Temperatures

Place Temperature

Stations

Nearby Weather Stations

Station Location Temp. Windchill Dew Point Humidity Wind Precip. Elev Updated Type
                   

Watches & Warnings

Coastal Hazard Statement
Issued: 1:47 AM CST Dec. 6, 2016 – National Weather Service

... High rip current risk in effect from 9 am EST /8 am CST/ this
morning through this evening...

The National Weather Service in Tallahassee has issued a high rip
current risk... which is in effect from 9 am EST /8 am CST/ this
morning through this evening.

* Timing... through this evening.

Precautionary/preparedness actions...

There is a high risk of rip currents.

Rip currents are powerful channels of water flowing quickly away
from shore. They occur most often at low spots or breaks in The
Sandbar... as well as in the vicinity of jetties and piers.

Heed the advice of lifeguards... beach patrol flags... and signs
before entering the water. If caught in a rip current do not swim
against it. Face the shore and signal for help. Float or tread
water until the current ends or until rescued.